Time,TemperatureF,DewpointF,PressureIn,WindDirection,WindDirectionDegrees,WindSpeedMPH,WindSpeedGustMPH,Humidity,HourlyPrecipIn,Conditions,Clouds,dailyrainin,SoftwareType,DateUTC
2013-02-19 00:11:00,43.5,30.1,29.42,SSW,202,8.3,-999.0,59,-99.99,,,0.00,Acu-Link.com,2013-02-19 05:11:00,
2013-02-19 00:26:00,43.9,30.5,29.41,South,180,10.9,-999.0,59,-99.99,,,0.00,Acu-Link.com,2013-02-19 05:26:00,
2013-02-19 00:41:00,43.9,30.5,29.40,SW,225,9.4,-999.0,59,-99.99,,,0.00,Acu-Link.com,2013-02-19 05:41:00,
2013-02-19 00:57:00,43.9,30.5,29.39,SSE,157,9.4,-999.0,59,-99.99,,,0.00,Acu-Link.com,2013-02-19 05:57:00,
2013-02-19 01:12:00,43.5,31.4,29.39,SSW,202,13.0,-999.0,62,-99.99,,,0.00,Acu-Link.com,2013-02-19 06:12:00,
2013-02-19 01:27:00,43.2,33.0,29.38,SSW,202,10.4,-999.0,67,-99.99,,,0.00,Acu-Link.com,2013-02-19 06:27:00,
2013-02-19 01:42:00,42.3,34.6,29.37,South,180,13.0,-999.0,74,-99.99,,,0.00,Acu-Link.com,2013-02-19 06:42:00,
2013-02-19 01:58:00,41.2,34.9,29.35,South,180,8.9,-999.0,78,-99.99,,,0.01,Acu-Link.com,2013-02-19 06:58:00,
2013-02-19 02:13:00,41.0,35.3,29.34,South,180,11.9,-999.0,80,-99.99,,,0.01,Acu-Link.com,2013-02-19 07:13:00,
2013-02-19 02:28:00,40.8,35.7,29.34,South,180,8.3,-999.0,82,-99.99,,,0.01,Acu-Link.com,2013-02-19 07:28:00,
2013-02-19 02:43:00,40.5,35.4,29.32,SSW,202,8.3,-999.0,82,-99.99,,,0.01,Acu-Link.com,2013-02-19 07:43:00,
2013-02-19 02:59:00,40.5,35.8,29.31,SSW,202,7.8,-999.0,83,-99.99,,,0.02,Acu-Link.com,2013-02-19 07:59:00,
2013-02-19 03:14:00,40.5,36.1,29.30,South,180,13.5,-999.0,84,-99.99,,,0.02,Acu-Link.com,2013-02-19 08:14:00,
2013-02-19 03:29:00,40.5,36.1,29.29,South,180,9.4,-999.0,84,-99.99,,,0.03,Acu-Link.com,2013-02-19 08:29:00,
2013-02-19 03:44:00,40.3,35.9,29.27,SSE,157,13.5,-999.0,84,-99.99,,,0.06,Acu-Link.com,2013-02-19 08:44:00,
2013-02-19 04:00:00,39.9,35.8,29.25,South,180,9.4,-999.0,85,-99.99,,,0.06,Acu-Link.com,2013-02-19 09:00:00,
2013-02-19 04:17:00,39.9,35.8,29.25,SSW,202,13.0,-999.0,85,-99.99,,,0.07,Acu-Link.com,2013-02-19 09:17:00,
2013-02-19 04:32:00,39.9,36.1,29.24,South,180,11.4,-999.0,86,-99.99,,,0.09,Acu-Link.com,2013-02-19 09:32:00,
2013-02-19 04:47:00,40.1,36.3,29.23,South,180,10.9,-999.0,86,-99.99,,,0.10,Acu-Link.com,2013-02-19 09:47:00,
2013-02-19 05:03:00,39.9,36.4,29.23,SSW,202,8.9,-999.0,87,-99.99,,,0.11,Acu-Link.com,2013-02-19 10:03:00,
2013-02-19 05:18:00,40.1,36.5,29.23,SW,225,7.8,-999.0,87,-99.99,,,0.12,Acu-Link.com,2013-02-19 10:18:00,
2013-02-19 05:33:00,40.6,37.3,29.22,SSW,202,9.9,-999.0,88,-99.99,,,0.12,Acu-Link.com,2013-02-19 10:33:00,
2013-02-19 05:48:00,41.0,37.1,29.23,SSE,157,4.7,-999.0,86,-99.99,,,0.12,Acu-Link.com,2013-02-19 10:48:00,
2013-02-19 06:03:00,37.8,32.5,29.26,SSE,157,5.3,-999.0,81,-99.99,,,0.12,Acu-Link.com,2013-02-19 11:03:00,
2013-02-19 06:18:00,36.7,31.7,29.27,NW,315,5.8,-999.0,82,-99.99,,,0.12,Acu-Link.com,2013-02-19 11:18:00,
2013-02-19 06:34:00,36.3,31.6,29.28,West,270,7.3,-999.0,83,-99.99,,,0.12,Acu-Link.com,2013-02-19 11:34:00,
2013-02-19 06:49:00,36.0,31.0,29.29,NNW,337,5.3,-999.0,82,-99.99,,,0.12,Acu-Link.com,2013-02-19 11:49:00,
2013-02-19 07:04:00,35.8,30.9,29.30,SW,225,9.9,-999.0,82,-99.99,,,0.12,Acu-Link.com,2013-02-19 12:04:00,
2013-02-19 07:19:00,35.6,30.7,29.31,SSW,202,6.8,-999.0,82,-99.99,,,0.12,Acu-Link.com,2013-02-19 12:19:00,
2013-02-19 07:35:00,35.2,30.3,29.32,SW,225,10.4,-999.0,82,-99.99,,,0.12,Acu-Link.com,2013-02-19 12:35:00,
2013-02-19 07:50:00,34.9,29.7,29.32,SW,225,4.2,-999.0,81,-99.99,,,0.12,Acu-Link.com,2013-02-19 12:50:00,
2013-02-19 08:05:00,34.3,29.4,29.33,SW,225,12.5,-999.0,82,-99.99,,,0.12,Acu-Link.com,2013-02-19 13:05:00,
2013-02-19 08:21:00,34.0,28.8,29.34,SW,225,7.8,-999.0,81,-99.99,,,0.12,Acu-Link.com,2013-02-19 13:21:00,
2013-02-19 08:36:00,33.6,27.8,29.34,WSW,247,5.8,-999.0,79,-99.99,,,0.12,Acu-Link.com,2013-02-19 13:36:00,
2013-02-19 08:51:00,33.3,27.5,29.35,West,270,7.3,-999.0,79,-99.99,,,0.12,Acu-Link.com,2013-02-19 13:51:00,
2013-02-19 09:06:00,32.7,26.9,29.36,SSW,202,6.8,-999.0,79,-99.99,,,0.12,Acu-Link.com,2013-02-19 14:06:00,
2013-02-19 09:21:00,32.4,26.9,29.36,SW,225,6.8,-999.0,80,-99.99,,,0.12,Acu-Link.com,2013-02-19 14:21:00,
2013-02-19 09:37:00,31.6,25.8,29.37,SSW,202,8.9,-999.0,79,-99.99,,,0.12,Acu-Link.com,2013-02-19 14:37:00,
2013-02-19 09:52:00,30.9,25.2,29.38,SSW,202,5.3,-999.0,79,-99.99,,,0.12,Acu-Link.com,2013-02-19 14:52:00,
2013-02-19 10:07:00,30.4,24.7,29.38,SSW,202,3.7,-999.0,79,-99.99,,,0.12,Acu-Link.com,2013-02-19 15:07:00,
2013-02-19 10:22:00,30.2,23.9,29.39,South,180,4.2,-999.0,77,-99.99,,,0.12,Acu-Link.com,2013-02-19 15:22:00,
2013-02-19 10:38:00,29.7,22.4,29.39,SW,225,9.4,-999.0,74,-99.99,,,0.12,Acu-Link.com,2013-02-19 15:38:00,
2013-02-19 10:54:00,29.5,21.6,29.40,West,270,8.3,-999.0,72,-99.99,,,0.12,Acu-Link.com,2013-02-19 15:54:00,
2013-02-19 11:09:00,28.6,19.7,29.41,SW,225,5.8,-999.0,69,-99.99,,,0.12,Acu-Link.com,2013-02-19 16:09:00,
2013-02-19 11:24:00,27.7,19.2,29.41,SSW,202,5.8,-999.0,70,-99.99,,,0.12,Acu-Link.com,2013-02-19 16:24:00,
2013-02-19 11:40:00,27.7,18.9,29.42,West,270,7.3,-999.0,69,-99.99,,,0.12,Acu-Link.com,2013-02-19 16:40:00,
2013-02-19 11:55:00,28.4,18.5,29.43,SW,225,7.8,-999.0,66,-99.99,,,0.12,Acu-Link.com,2013-02-19 16:55:00,
2013-02-19 12:10:00,28.0,16.3,29.43,West,270,4.7,-999.0,61,-99.99,,,0.12,Acu-Link.com,2013-02-19 17:10:00,
2013-02-19 12:25:00,27.7,16.4,29.43,SSW,202,5.3,-999.0,62,-99.99,,,0.12,Acu-Link.com,2013-02-19 17:25:00,
2013-02-19 12:40:00,27.7,16.8,29.42,SSW,202,6.3,-999.0,63,-99.99,,,0.12,Acu-Link.com,2013-02-19 17:40:00,
2013-02-19 12:55:00,26.8,15.6,29.43,WSW,247,7.8,-999.0,62,-99.99,,,0.12,Acu-Link.com,2013-02-19 17:55:00,
2013-02-19 13:11:00,27.0,14.6,29.43,SW,225,12.5,-999.0,59,-99.99,,,0.12,Acu-Link.com,2013-02-19 18:11:00,
2013-02-19 13:26:00,26.1,15.3,29.43,West,270,17.1,-999.0,63,-99.99,,,0.12,Acu-Link.com,2013-02-19 18:26:00,
2013-02-19 13:41:00,26.2,14.6,29.44,WSW,247,7.3,-999.0,61,-99.99,,,0.12,Acu-Link.com,2013-02-19 18:41:00,
2013-02-19 13:56:00,25.5,15.0,29.44,SW,225,7.8,-999.0,64,-99.99,,,0.12,Acu-Link.com,2013-02-19 18:56:00,
2013-02-19 14:11:00,25.2,14.4,29.45,SW,225,9.9,-999.0,63,-99.99,,,0.12,Acu-Link.com,2013-02-19 19:11:00,
2013-02-19 14:27:00,24.4,16.0,29.45,West,270,9.9,-999.0,70,-99.99,,,0.12,Acu-Link.com,2013-02-19 19:27:00,
2013-02-19 14:42:00,24.3,16.3,29.46,SSW,202,7.3,-999.0,71,-99.99,,,0.12,Acu-Link.com,2013-02-19 19:42:00,
2013-02-19 14:57:00,24.1,17.3,29.46,South,180,4.7,-999.0,75,-99.99,,,0.12,Acu-Link.com,2013-02-19 19:57:00,
2013-02-19 15:12:00,24.3,17.2,29.47,SW,225,12.5,-999.0,74,-99.99,,,0.12,Acu-Link.com,2013-02-19 20:12:00,
2013-02-19 15:27:00,24.6,15.9,29.48,SW,225,14.5,-999.0,69,-99.99,,,0.12,Acu-Link.com,2013-02-19 20:27:00,
2013-02-19 15:42:00,24.4,14.4,29.49,WSW,247,10.4,-999.0,65,-99.99,,,0.12,Acu-Link.com,2013-02-19 20:42:00,
2013-02-19 15:58:00,24.8,14.7,29.50,SSW,202,6.3,-999.0,65,-99.99,,,0.12,Acu-Link.com,2013-02-19 20:58:00,
2013-02-19 16:13:00,24.8,13.7,29.50,West,270,11.4,-999.0,62,-99.99,,,0.12,Acu-Link.com,2013-02-19 21:13:00,
2013-02-19 16:28:00,24.8,14.0,29.52,SW,225,4.7,-999.0,63,-99.99,,,0.12,Acu-Link.com,2013-02-19 21:28:00,
2013-02-19 16:43:00,24.1,13.4,29.52,SSW,202,3.7,-999.0,63,-99.99,,,0.12,Acu-Link.com,2013-02-19 21:43:00,
2013-02-19 16:58:00,24.1,12.3,29.53,East,90,7.8,-999.0,60,-99.99,,,0.12,Acu-Link.com,2013-02-19 21:58:00,
2013-02-19 17:13:00,23.9,13.2,29.54,SSW,202,11.9,-999.0,63,-99.99,,,0.12,Acu-Link.com,2013-02-19 22:13:00,
2013-02-19 17:29:00,23.7,13.3,29.56,WSW,247,7.3,-999.0,64,-99.99,,,0.12,Acu-Link.com,2013-02-19 22:29:00,
2013-02-19 17:44:00,23.4,13.7,29.57,SW,225,7.3,-999.0,66,-99.99,,,0.12,Acu-Link.com,2013-02-19 22:44:00,
2013-02-19 17:59:00,22.6,14.6,29.57,SW,225,5.3,-999.0,71,-99.99,,,0.12,Acu-Link.com,2013-02-19 22:59:00,
2013-02-19 18:15:00,21.4,15.3,29.59,SW,225,8.9,-999.0,77,-99.99,,,0.12,Acu-Link.com,2013-02-19 23:15:00,
2013-02-19 18:30:00,21.4,15.6,29.60,WSW,247,5.8,-999.0,78,-99.99,,,0.12,Acu-Link.com,2013-02-19 23:30:00,
2013-02-19 18:45:00,21.2,14.8,29.61,SSW,202,5.3,-999.0,76,-99.99,,,0.12,Acu-Link.com,2013-02-19 23:45:00,
2013-02-19 19:00:00,20.8,13.5,29.63,SW,225,6.8,-999.0,73,-99.99,,,0.12,Acu-Link.com,2013-02-20 00:00:00,
2013-02-19 19:15:00,20.8,11.6,29.63,SW,225,6.8,-999.0,67,-99.99,,,0.12,Acu-Link.com,2013-02-20 00:15:00,
2013-02-19 19:30:00,21.0,10.8,29.63,South,180,6.8,-999.0,64,-99.99,,,0.12,Acu-Link.com,2013-02-20 00:30:00,
2013-02-19 19:46:00,21.0,10.1,29.64,WSW,247,6.8,-999.0,62,-99.99,,,0.12,Acu-Link.com,2013-02-20 00:46:00,
2013-02-19 20:01:00,20.5,8.1,29.64,NE,45,6.3,-999.0,58,-99.99,,,0.12,Acu-Link.com,2013-02-20 01:01:00,
2013-02-19 20:16:00,20.3,9.4,29.65,WSW,247,7.3,-999.0,62,-99.99,,,0.12,Acu-Link.com,2013-02-20 01:16:00,
2013-02-19 20:31:00,19.9,9.4,29.66,WSW,247,4.7,-999.0,63,-99.99,,,0.12,Acu-Link.com,2013-02-20 01:31:00,
2013-02-19 20:46:00,19.6,9.1,29.67,WNW,292,6.3,-999.0,63,-99.99,,,0.12,Acu-Link.com,2013-02-20 01:46:00,
2013-02-19 21:02:00,19.4,9.2,29.67,SSW,202,3.7,-999.0,64,-99.99,,,0.12,Acu-Link.com,2013-02-20 02:02:00,
2013-02-19 21:17:00,19.2,9.7,29.67,WSW,247,6.3,-999.0,66,-99.99,,,0.12,Acu-Link.com,2013-02-20 02:17:00,
2013-02-19 21:32:00,18.9,8.8,29.68,SSW,202,4.7,-999.0,64,-99.99,,,0.12,Acu-Link.com,2013-02-20 02:32:00,
2013-02-19 21:48:00,18.7,7.9,29.68,WSW,247,4.7,-999.0,62,-99.99,,,0.12,Acu-Link.com,2013-02-20 02:48:00,
2013-02-19 22:03:00,18.7,7.9,29.68,NNW,337,6.3,-999.0,62,-99.99,,,0.12,Acu-Link.com,2013-02-20 03:03:00,
2013-02-19 22:18:00,18.7,7.9,29.69,SSW,202,3.2,-999.0,62,-99.99,,,0.12,Acu-Link.com,2013-02-20 03:18:00,
2013-02-19 22:34:00,18.3,7.5,29.70,SW,225,7.3,-999.0,62,-99.99,,,0.12,Acu-Link.com,2013-02-20 03:34:00,
2013-02-19 22:49:00,18.1,8.0,29.70,SW,225,9.9,-999.0,64,-99.99,,,0.12,Acu-Link.com,2013-02-20 03:49:00,
2013-02-19 23:04:00,18.5,8.7,29.70,WSW,247,4.2,-999.0,65,-99.99,,,0.12,Acu-Link.com,2013-02-20 04:04:00,
2013-02-19 23:19:00,18.5,9.1,29.70,SW,225,2.7,-999.0,66,-99.99,,,0.12,Acu-Link.com,2013-02-20 04:19:00,
2013-02-19 23:34:00,18.5,9.1,29.70,WSW,247,10.9,-999.0,66,-99.99,,,0.12,Acu-Link.com,2013-02-20 04:34:00,
2013-02-19 23:50:00,18.5,8.7,29.71,WSW,247,6.3,-999.0,65,-99.99,,,0.12,Acu-Link.com,2013-02-20 04:50:00,